Terminal Aerodrome Forecast
Issued by NWS

Home | Current Version | Previous Version | Text Only | Print | Product List | Glossary On
Versions: 1 2 3 4 5 6 7 8 9 10 11 12 13 14 15 16 17 18 19 20 21 22 23 24
331
FTUS43 KICT 280816 AAA
TAFSLN
TAF AMD
KSLN 280816Z 2808/2906 17017KT P6SM OVC300 WS020/18045KT
      TEMPO 2809/2811 -TSRA BKN050CB
     FM281200 17022G30KT P6SM SCT100 OVC250
     FM281500 19025G35KT P6SM BKN100
     FM282000 19025G35KT P6SM BKN040=

USA.gov is the U.S. government's official web portal to all federal, state and local government web resources and services.